Time;durP1;ratioP1;P1;durP2;ratioP2;P2;SDS_P1;SDS_P2;PMS_P1;PMS_P2;Temp;Humidity;BMP_temperature;BMP_pressure;BME280_temperature;BME280_humidity;BME280_pressure;Samples;Min_cycle;Max_cycle;Signal;HPM_P1;HPM_P2
2021/12/13 00:02:34;;;;;;;;;;;21.20;51.50;;;;;;5042463;28;20034;-69
2021/12/13 00:05:18;;;;;;;;;;;21.20;51.50;;;;;;5036655;28;19977;-66
2021/12/13 00:07:50;;;;;;;;;;;21.20;51.50;;;;;;5041710;28;19951;-70
2021/12/13 00:10:18;;;;;;;;;;;21.20;51.50;;;;;;5042845;28;19908;-67
2021/12/13 00:12:45;;;;;;;;;;;21.20;51.50;;;;;;5042751;28;20332;-70
2021/12/13 00:15:17;;;;;;;;;;;21.20;51.60;;;;;;5040310;28;19908;-70
2021/12/13 00:17:45;;;;;;;;;;;21.20;51.60;;;;;;5042885;28;20315;-70
2021/12/13 00:20:26;;;;;;;;;;;21.20;51.60;;;;;;5043290;28;19951;-71
2021/12/13 00:22:52;;;;;;;;;;;21.20;51.60;;;;;;5043510;28;20281;-68
2021/12/13 00:25:20;;;;;;;;;;;21.10;51.60;;;;;;5041137;28;19916;-70
2021/12/13 00:27:47;;;;;;;;;;;21.10;51.50;;;;;;5043093;28;19992;-71
2021/12/13 00:30:25;;;;;;;;;;;21.10;51.50;;;;;;5044248;28;20380;-68
2021/12/13 00:32:57;;;;;;;;;;;21.10;51.60;;;;;;5044191;28;20473;-67
2021/12/13 00:35:25;;;;;;;;;;;21.10;51.60;;;;;;5033940;28;20007;-66
2021/12/13 00:38:00;;;;;;;;;;;21.10;51.60;;;;;;5044913;28;20466;-67
2021/12/13 00:40:31;;;;;;;;;;;21.10;51.60;;;;;;5041146;28;20012;-69
2021/12/13 00:43:09;;;;;;;;;;;21.00;51.60;;;;;;5042121;28;20379;-67
2021/12/13 00:45:36;;;;;;;;;;;21.00;51.50;;;;;;5041276;28;19912;-68
2021/12/13 00:48:04;;;;;;;;;;;21.10;51.60;;;;;;5042689;28;20023;-70
2021/12/13 00:50:33;;;;;;;;;;;21.10;51.60;;;;;;5039012;28;20000;-69
2021/12/13 00:52:59;;;;;;;;;;;21.00;51.60;;;;;;5041711;28;20023;-70
2021/12/13 00:55:27;;;;;;;;;;;21.00;51.60;;;;;;5039614;28;20015;-66
2021/12/13 00:58:12;;;;;;;;;;;21.00;51.60;;;;;;5038210;28;19908;-70
2021/12/13 01:00:58;;;;;;;;;;;21.00;51.60;;;;;;5039204;28;19921;-68
2021/12/13 01:03:44;;;;;;;;;;;21.00;51.60;;;;;;5038397;28;19909;-68
2021/12/13 01:06:29;;;;;;;;;;;21.00;51.60;;;;;;5041335;28;19913;-71
2021/12/13 01:09:14;;;;;;;;;;;21.00;51.60;;;;;;5042007;28;20067;-70
2021/12/13 01:11:48;;;;;;;;;;;21.00;51.60;;;;;;5044606;28;19912;-69
2021/12/13 01:14:37;;;;;;;;;;;21.00;51.60;;;;;;5044899;28;20340;-66
2021/12/13 01:17:12;;;;;;;;;;;21.00;51.60;;;;;;5045685;28;20357;-69
2021/12/13 01:19:53;;;;;;;;;;;21.00;51.60;;;;;;5045818;28;20042;-68
2021/12/13 01:22:44;;;;;;;;;;;20.90;51.60;;;;;;5042136;28;20662;-71
2021/12/13 01:27:41;;;;;;;;;;;20.90;51.60;;;;;;5047760;28;19908;-67
2021/12/13 01:30:09;;;;;;;;;;;20.90;51.60;;;;;;5044074;28;19919;-67
2021/12/13 01:32:36;;;;;;;;;;;20.90;51.60;;;;;;5046576;28;19920;-69
2021/12/13 01:35:02;;;;;;;;;;;20.90;51.70;;;;;;5045852;28;19909;-69
2021/12/13 01:37:29;;;;;;;;;;;20.90;51.60;;;;;;5045862;28;20321;-70
2021/12/13 01:39:56;;;;;;;;;;;20.90;51.70;;;;;;5044746;28;20280;-70
2021/12/13 01:42:27;;;;;;;;;;;20.90;51.70;;;;;;5045652;28;19947;-70
2021/12/13 01:44:54;;;;;;;;;;;20.90;51.70;;;;;;5046031;28;19916;-70
2021/12/13 01:47:22;;;;;;;;;;;20.80;51.70;;;;;;5046147;28;19913;-68
2021/12/13 01:49:54;;;;;;;;;;;20.80;51.70;;;;;;5059067;28;19909;-65
2021/12/13 01:52:25;;;;;;;;;;;20.80;51.60;;;;;;5043371;28;19948;-70
2021/12/13 01:54:51;;;;;;;;;;;20.80;51.60;;;;;;5042263;28;19913;-65
2021/12/13 01:57:27;;;;;;;;;;;20.80;51.70;;;;;;5042000;28;19960;-65
2021/12/13 02:00:07;;;;;;;;;;;20.80;52.20;;;;;;5044403;28;20054;-70
2021/12/13 02:02:38;;;;;;;;;;;20.80;51.70;;;;;;5044148;28;20011;-67
2021/12/13 02:05:20;;;;;;;;;;;20.80;51.70;;;;;;5043315;28;19913;-68
2021/12/13 02:07:48;;;;;;;;;;;20.80;51.70;;;;;;5047120;28;20042;-67
2021/12/13 02:10:16;;;;;;;;;;;20.80;51.70;;;;;;5045702;28;19909;-65
2021/12/13 02:12:44;;;;;;;;;;;20.70;51.60;;;;;;5043696;28;20286;-70
2021/12/13 02:17:55;;;;;;;;;;;20.70;51.60;;;;;;5045661;28;19943;-70
2021/12/13 02:20:26;;;;;;;;;;;20.70;51.60;;;;;;5040917;28;19917;-69
2021/12/13 02:22:53;;;;;;;;;;;20.70;51.60;;;;;;5046714;28;19913;-70
2021/12/13 02:25:22;;;;;;;;;;;20.70;51.60;;;;;;5045473;28;20011;-67
2021/12/13 02:27:50;;;;;;;;;;;20.70;51.60;;;;;;5043576;28;19913;-65
2021/12/13 02:30:18;;;;;;;;;;;20.70;51.70;;;;;;5043023;28;20301;-70
2021/12/13 02:32:44;;;;;;;;;;;20.70;51.70;;;;;;5045584;28;19972;-70
2021/12/13 02:35:10;;;;;;;;;;;20.70;51.70;;;;;;5041955;28;20354;-68
2021/12/13 02:37:38;;;;;;;;;;;20.70;51.70;;;;;;5047183;28;19920;-68
2021/12/13 02:40:05;;;;;;;;;;;20.70;51.70;;;;;;5043750;28;19909;-70
2021/12/13 02:42:31;;;;;;;;;;;20.70;51.70;;;;;;5046359;28;19999;-67
2021/12/13 02:45:04;;;;;;;;;;;20.60;51.70;;;;;;5042638;28;19912;-68
2021/12/13 02:47:35;;;;;;;;;;;20.60;51.70;;;;;;5044770;28;19995;-65
2021/12/13 02:50:01;;;;;;;;;;;20.60;51.70;;;;;;5044757;28;20327;-69
2021/12/13 02:52:27;;;;;;;;;;;20.60;51.70;;;;;;5044296;28;20331;-68
2021/12/13 02:55:03;;;;;;;;;;;20.60;51.70;;;;;;5046248;28;19963;-68
2021/12/13 02:57:31;;;;;;;;;;;20.60;51.70;;;;;;5043718;28;20024;-69
2021/12/13 03:00:05;;;;;;;;;;;20.60;51.70;;;;;;5055348;28;20271;-68
2021/12/13 03:02:33;;;;;;;;;;;20.60;51.70;;;;;;5042777;28;19917;-70
2021/12/13 03:05:01;;;;;;;;;;;20.60;51.70;;;;;;5044728;28;20291;-67
2021/12/13 03:07:31;;;;;;;;;;;20.60;51.70;;;;;;5043890;28;19913;-66
2021/12/13 03:09:57;;;;;;;;;;;20.60;51.70;;;;;;5044917;28;20011;-65
2021/12/13 03:12:24;;;;;;;;;;;20.60;51.70;;;;;;5042065;28;19927;-67
2021/12/13 03:14:51;;;;;;;;;;;20.60;51.70;;;;;;5045827;28;19962;-70
2021/12/13 03:17:31;;;;;;;;;;;20.50;51.70;;;;;;5041037;28;20668;-67
2021/12/13 03:20:02;;;;;;;;;;;20.60;51.70;;;;;;5041886;28;19917;-67
2021/12/13 03:22:37;;;;;;;;;;;20.50;51.70;;;;;;5044106;28;20249;-69
2021/12/13 03:25:06;;;;;;;;;;;20.50;51.70;;;;;;5043784;28;19986;-67
2021/12/13 03:27:37;;;;;;;;;;;20.50;51.70;;;;;;5045970;28;19913;-66
2021/12/13 03:30:07;;;;;;;;;;;20.50;51.70;;;;;;5036969;28;19909;-70
2021/12/13 03:32:35;;;;;;;;;;;20.50;51.70;;;;;;5043150;28;20519;-70
2021/12/13 03:35:13;;;;;;;;;;;20.50;51.70;;;;;;5041644;28;19912;-66
2021/12/13 03:37:40;;;;;;;;;;;20.50;51.70;;;;;;5041705;28;19916;-65
2021/12/13 03:40:11;;;;;;;;;;;20.50;51.80;;;;;;5043822;28;20065;-70
2021/12/13 03:42:45;;;;;;;;;;;20.50;51.80;;;;;;5042057;28;19995;-69
2021/12/13 03:45:31;;;;;;;;;;;20.50;51.80;;;;;;5043870;28;19988;-65
2021/12/13 03:47:57;;;;;;;;;;;20.50;51.80;;;;;;5044700;28;19930;-71
2021/12/13 03:50:28;;;;;;;;;;;20.50;51.80;;;;;;5042334;28;19916;-65
2021/12/13 03:52:55;;;;;;;;;;;20.40;51.70;;;;;;5044390;28;19936;-65
2021/12/13 03:55:22;;;;;;;;;;;20.40;51.70;;;;;;5039622;28;19917;-69
2021/12/13 03:57:50;;;;;;;;;;;20.50;51.80;;;;;;5042909;28;20142;-69
2021/12/13 04:00:18;;;;;;;;;;;20.40;51.70;;;;;;5042889;28;19978;-69
2021/12/13 04:02:43;;;;;;;;;;;20.40;51.80;;;;;;5045392;28;20229;-68
2021/12/13 04:05:11;;;;;;;;;;;20.40;51.80;;;;;;5036629;28;19908;-65
2021/12/13 04:07:39;;;;;;;;;;;20.40;51.80;;;;;;5045174;28;19919;-70
2021/12/13 04:10:08;;;;;;;;;;;20.40;51.80;;;;;;5045807;28;19913;-70
2021/12/13 04:12:37;;;;;;;;;;;20.40;51.80;;;;;;5043591;28;19909;-65
2021/12/13 04:15:34;;;;;;;;;;;20.40;51.80;;;;;;5042621;28;19992;-65
2021/12/13 04:18:14;;;;;;;;;;;20.40;51.80;;;;;;5044176;28;19920;-70
2021/12/13 04:20:41;;;;;;;;;;;20.40;51.80;;;;;;5041718;28;20034;-65
2021/12/13 04:23:12;;;;;;;;;;;20.40;51.80;;;;;;5041723;28;19915;-66
2021/12/13 04:25:39;;;;;;;;;;;20.40;51.80;;;;;;5042496;28;19929;-69
2021/12/13 04:28:17;;;;;;;;;;;20.40;51.80;;;;;;5038816;28;19935;-68
2021/12/13 04:30:44;;;;;;;;;;;20.40;51.80;;;;;;5037496;28;19931;-71
2021/12/13 04:33:12;;;;;;;;;;;20.40;51.80;;;;;;5039867;28;19923;-70
2021/12/13 04:35:40;;;;;;;;;;;20.40;51.80;;;;;;5039833;28;19912;-70
2021/12/13 04:38:06;;;;;;;;;;;20.40;51.80;;;;;;5038759;28;19919;-70
2021/12/13 04:40:35;;;;;;;;;;;20.30;51.70;;;;;;5039072;28;19912;-67
2021/12/13 04:43:01;;;;;;;;;;;20.40;51.80;;;;;;5043847;28;20004;-67
2021/12/13 04:45:27;;;;;;;;;;;20.40;51.80;;;;;;5042776;28;20007;-67
2021/12/13 04:47:55;;;;;;;;;;;20.40;51.80;;;;;;5044320;28;19920;-66
2021/12/13 04:50:23;;;;;;;;;;;20.30;51.80;;;;;;5038727;28;19917;-69
2021/12/13 04:52:49;;;;;;;;;;;20.30;51.80;;;;;;5043232;28;19917;-69
2021/12/13 04:55:23;;;;;;;;;;;20.40;51.80;;;;;;5045896;28;19931;-70
2021/12/13 04:57:50;;;;;;;;;;;20.30;51.80;;;;;;5046066;28;19962;-68
2021/12/13 05:00:18;;;;;;;;;;;20.30;52.30;;;;;;5045109;28;19964;-70
2021/12/13 05:02:45;;;;;;;;;;;20.30;51.80;;;;;;5043871;28;19912;-70
2021/12/13 05:05:12;;;;;;;;;;;20.30;51.80;;;;;;5042675;28;20233;-70
2021/12/13 05:07:39;;;;;;;;;;;20.30;51.80;;;;;;5045087;28;19912;-70
2021/12/13 05:10:04;;;;;;;;;;;20.30;51.80;;;;;;5045085;28;19908;-69
2021/12/13 05:12:30;;;;;;;;;;;20.30;51.90;;;;;;5047603;28;19909;-70
2021/12/13 05:14:58;;;;;;;;;;;20.30;51.90;;;;;;5045042;28;20552;-69
2021/12/13 05:17:34;;;;;;;;;;;20.30;51.90;;;;;;5046723;28;20244;-70
2021/12/13 05:20:05;;;;;;;;;;;20.30;52.30;;;;;;5043517;28;19962;-68
2021/12/13 05:22:31;;;;;;;;;;;20.30;52.00;;;;;;5048893;28;20007;-65
2021/12/13 05:24:58;;;;;;;;;;;20.30;52.10;;;;;;5046140;28;20035;-69
2021/12/13 05:27:36;;;;;;;;;;;20.20;52.10;;;;;;5046992;28;20332;-68
2021/12/13 05:30:12;;;;;;;;;;;20.30;52.20;;;;;;5043797;28;19909;-69
2021/12/13 05:32:40;;;;;;;;;;;20.20;52.20;;;;;;5045674;28;19913;-70
2021/12/13 05:35:12;;;;;;;;;;;20.30;52.20;;;;;;5042226;28;20219;-70
2021/12/13 05:37:40;;;;;;;;;;;20.20;52.30;;;;;;5058288;28;20684;-71
2021/12/13 05:40:10;;;;;;;;;;;20.20;52.20;;;;;;5045028;28;20007;-69
2021/12/13 05:42:38;;;;;;;;;;;20.20;52.30;;;;;;5047067;28;19912;-66
2021/12/13 05:45:06;;;;;;;;;;;20.20;52.30;;;;;;5046448;28;19917;-71
2021/12/13 05:47:31;;;;;;;;;;;20.20;52.40;;;;;;5043424;28;19909;-70
2021/12/13 05:49:57;;;;;;;;;;;20.20;52.40;;;;;;5044357;28;19909;-72
2021/12/13 05:52:31;;;;;;;;;;;20.20;52.40;;;;;;5045144;28;19912;-66
2021/12/13 05:55:00;;;;;;;;;;;20.20;52.50;;;;;;5046468;28;20061;-69
2021/12/13 05:57:29;;;;;;;;;;;20.20;52.40;;;;;;5043163;28;19917;-66
2021/12/13 05:59:56;;;;;;;;;;;20.20;52.50;;;;;;5045058;28;20000;-67
2021/12/13 06:02:39;;;;;;;;;;;20.20;52.50;;;;;;5042674;28;19944;-66
2021/12/13 06:05:04;;;;;;;;;;;20.20;52.60;;;;;;5043096;28;19920;-66
2021/12/13 06:07:32;;;;;;;;;;;20.20;52.60;;;;;;5043291;28;19915;-70
2021/12/13 06:10:03;;;;;;;;;;;20.20;52.60;;;;;;5045670;28;19909;-64
2021/12/13 06:12:31;;;;;;;;;;;20.20;52.60;;;;;;5042679;28;20051;-67
2021/12/13 06:15:03;;;;;;;;;;;20.20;52.60;;;;;;5046498;28;19908;-70
2021/12/13 06:17:30;;;;;;;;;;;20.20;52.60;;;;;;5041182;28;19984;-67
2021/12/13 06:20:07;;;;;;;;;;;20.20;52.70;;;;;;5040741;28;19953;-70
2021/12/13 06:22:33;;;;;;;;;;;20.20;52.60;;;;;;5046026;28;19916;-67
2021/12/13 06:25:03;;;;;;;;;;;20.20;52.70;;;;;;5041590;28;19913;-68
2021/12/13 06:27:30;;;;;;;;;;;20.20;52.70;;;;;;5044387;28;19916;-68
2021/12/13 06:30:03;;;;;;;;;;;20.20;52.70;;;;;;5045552;28;20375;-70
2021/12/13 06:32:40;;;;;;;;;;;20.20;52.70;;;;;;5043027;28;20101;-67
2021/12/13 06:35:24;;;;;;;;;;;20.20;52.70;;;;;;5040629;28;19999;-68
2021/12/13 06:37:50;;;;;;;;;;;20.20;52.70;;;;;;5045209;28;19917;-69
2021/12/13 06:40:26;;;;;;;;;;;20.20;52.70;;;;;;5039803;28;19971;-68
2021/12/13 06:42:52;;;;;;;;;;;20.20;52.70;;;;;;5043693;28;19930;-68
2021/12/13 06:45:35;;;;;;;;;;;20.20;52.80;;;;;;5045929;28;20372;-70
2021/12/13 06:48:02;;;;;;;;;;;20.10;52.70;;;;;;5046153;28;19908;-64
2021/12/13 06:50:34;;;;;;;;;;;20.20;52.70;;;;;;5041210;28;19924;-70
2021/12/13 06:53:18;;;;;;;;;;;20.20;52.80;;;;;;5059926;28;19912;-70
2021/12/13 06:55:45;;;;;;;;;;;20.20;52.80;;;;;;5042909;28;19916;-68
2021/12/13 06:58:12;;;;;;;;;;;20.20;52.80;;;;;;5046366;28;20225;-70
2021/12/13 07:00:38;;;;;;;;;;;20.20;52.80;;;;;;5042310;28;20015;-70
2021/12/13 07:03:09;;;;;;;;;;;20.20;52.70;;;;;;5042511;28;20131;-65
2021/12/13 07:05:36;;;;;;;;;;;20.10;52.70;;;;;;5043875;28;19912;-68
2021/12/13 07:08:07;;;;;;;;;;;20.20;52.80;;;;;;5042674;28;20280;-70
2021/12/13 07:10:34;;;;;;;;;;;20.20;52.70;;;;;;5046375;28;20388;-69
2021/12/13 07:13:02;;;;;;;;;;;20.20;52.70;;;;;;5045694;28;19908;-70
2021/12/13 07:15:30;;;;;;;;;;;20.10;52.70;;;;;;5043083;28;19920;-70
2021/12/13 07:18:12;;;;;;;;;;;20.20;52.70;;;;;;5044642;28;20023;-70
2021/12/13 07:20:40;;;;;;;;;;;20.10;52.70;;;;;;5042214;28;20449;-69
2021/12/13 07:23:06;;;;;;;;;;;20.10;52.70;;;;;;5037788;28;19917;-69
2021/12/13 07:25:35;;;;;;;;;;;20.10;52.80;;;;;;5036535;28;19915;-69
2021/12/13 07:28:01;;;;;;;;;;;20.20;53.50;;;;;;5045043;28;20594;-68
2021/12/13 07:30:29;;;;;;;;;;;20.30;54.00;;;;;;5043971;28;19924;-71
2021/12/13 07:33:01;;;;;;;;;;;20.50;54.00;;;;;;5044543;28;19913;-68
2021/12/13 07:35:33;;;;;;;;;;;20.70;53.70;;;;;;5043831;28;19913;-71
2021/12/13 07:37:59;;;;;;;;;;;21.00;53.60;;;;;;5048510;28;19928;-69
2021/12/13 07:40:38;;;;;;;;;;;21.20;53.20;;;;;;5046546;28;20428;-69
2021/12/13 07:43:03;;;;;;;;;;;21.20;53.00;;;;;;5045427;28;20401;-70
2021/12/13 07:45:49;;;;;;;;;;;21.10;52.90;;;;;;5045074;28;20039;-69
2021/12/13 07:48:23;;;;;;;;;;;21.10;53.30;;;;;;5024545;28;19932;-66
2021/12/13 07:50:57;;;;;;;;;;;21.00;53.20;;;;;;5041753;28;20033;-69
2021/12/13 07:53:24;;;;;;;;;;;21.00;53.40;;;;;;5042384;28;19912;-68
2021/12/13 07:55:50;;;;;;;;;;;21.00;53.40;;;;;;5044161;28;19916;-64
2021/12/13 07:58:32;;;;;;;;;;;21.00;53.40;;;;;;5042317;28;19924;-68
2021/12/13 08:01:06;;;;;;;;;;;21.10;53.60;;;;;;5041223;28;19974;-68
2021/12/13 08:03:31;;;;;;;;;;;21.10;53.50;;;;;;5043802;28;19908;-72
2021/12/13 08:06:04;;;;;;;;;;;21.10;54.20;;;;;;5042946;28;20379;-71
2021/12/13 08:08:32;;;;;;;;;;;21.40;54.50;;;;;;5043865;28;19916;-69
2021/12/13 08:10:59;;;;;;;;;;;21.60;53.70;;;;;;5041090;28;19928;-69
2021/12/13 08:13:29;;;;;;;;;;;21.70;53.40;;;;;;5044968;28;20055;-72
2021/12/13 08:16:00;;;;;;;;;;;21.60;53.20;;;;;;5043635;28;19912;-69
2021/12/13 08:18:34;;;;;;;;;;;21.60;53.30;;;;;;5052459;28;20911;-70
2021/12/13 08:21:13;;;;;;;;;;;21.60;53.10;;;;;;5046472;28;19919;-65
2021/12/13 08:23:49;;;;;;;;;;;21.60;53.50;;;;;;5048907;28;20346;-70
2021/12/13 08:26:24;;;;;;;;;;;21.60;53.70;;;;;;5048519;28;20476;-69
2021/12/13 08:28:52;;;;;;;;;;;21.60;53.60;;;;;;5048818;28;19913;-68
2021/12/13 08:31:20;;;;;;;;;;;21.60;53.10;;;;;;5049633;28;19913;-73
2021/12/13 08:33:48;;;;;;;;;;;21.70;53.30;;;;;;5049028;28;19913;-70
2021/12/13 08:36:15;;;;;;;;;;;21.70;53.30;;;;;;5045272;28;20079;-70
2021/12/13 08:38:40;;;;;;;;;;;21.70;53.10;;;;;;5051862;28;19912;-65
2021/12/13 08:41:15;;;;;;;;;;;21.70;53.20;;;;;;5052150;28;19913;-69
2021/12/13 08:43:44;;;;;;;;;;;21.70;53.70;;;;;;5047165;28;19919;-69
2021/12/13 08:46:10;;;;;;;;;;;21.80;53.10;;;;;;5048226;28;19909;-71
2021/12/13 08:48:43;;;;;;;;;;;21.80;53.10;;;;;;5044844;28;19924;-69
2021/12/13 08:51:09;;;;;;;;;;;21.80;53.10;;;;;;5043011;28;20354;-69
2021/12/13 08:53:36;;;;;;;;;;;21.80;53.20;;;;;;5046176;28;19963;-73
2021/12/13 08:56:02;;;;;;;;;;;21.80;53.10;;;;;;5043109;28;19963;-69
2021/12/13 08:58:28;;;;;;;;;;;21.90;53.10;;;;;;5042454;28;19919;-72
2021/12/13 09:00:53;;;;;;;;;;;21.90;53.50;;;;;;5042143;28;19944;-71
2021/12/13 09:03:20;;;;;;;;;;;21.90;53.30;;;;;;5046772;28;19954;-69
2021/12/13 09:06:04;;;;;;;;;;;21.90;53.20;;;;;;5046309;28;20332;-68
2021/12/13 09:08:43;;;;;;;;;;;22.00;53.20;;;;;;5046632;28;20326;-66
2021/12/13 09:11:13;;;;;;;;;;;22.00;53.70;;;;;;5046830;28;20071;-67
2021/12/13 09:13:45;;;;;;;;;;;22.10;53.80;;;;;;5043998;28;19917;-69
2021/12/13 09:16:12;;;;;;;;;;;22.00;53.70;;;;;;5047878;28;19967;-70
2021/12/13 09:18:38;;;;;;;;;;;22.10;53.50;;;;;;5043833;28;20315;-65
2021/12/13 09:21:04;;;;;;;;;;;22.10;53.20;;;;;;5046829;28;19934;-70
2021/12/13 09:23:46;;;;;;;;;;;22.10;53.20;;;;;;5047818;28;19916;-65
2021/12/13 09:26:14;;;;;;;;;;;22.10;53.20;;;;;;5042643;28;19912;-72
2021/12/13 09:28:48;;;;;;;;;;;22.20;53.30;;;;;;5049257;28;19978;-65
2021/12/13 09:31:20;;;;;;;;;;;22.20;53.30;;;;;;5044622;28;19917;-69
2021/12/13 09:33:51;;;;;;;;;;;22.20;53.20;;;;;;5044699;28;20008;-68
2021/12/13 09:36:21;;;;;;;;;;;22.20;52.30;;;;;;5044657;28;19928;-68
2021/12/13 09:38:52;;;;;;;;;;;22.20;51.00;;;;;;5044008;28;19912;-65
2021/12/13 09:41:23;;;;;;;;;;;22.20;50.60;;;;;;5037043;28;20012;-66
2021/12/13 09:43:58;;;;;;;;;;;22.20;50.40;;;;;;5048147;28;19909;-69
2021/12/13 09:46:32;;;;;;;;;;;22.20;50.10;;;;;;5046352;28;20000;-71
2021/12/13 09:48:59;;;;;;;;;;;22.20;50.50;;;;;;5046187;28;19974;-68
2021/12/13 09:51:33;;;;;;;;;;;22.20;49.90;;;;;;5037103;28;19912;-70
2021/12/13 09:54:00;;;;;;;;;;;22.20;50.10;;;;;;5048011;28;19915;-66
2021/12/13 09:56:29;;;;;;;;;;;22.50;50.60;;;;;;5045155;28;19924;-68
2021/12/13 09:58:57;;;;;;;;;;;22.90;50.00;;;;;;5042130;28;19908;-68
2021/12/13 10:01:26;;;;;;;;;;;23.20;49.80;;;;;;5045450;28;20398;-69
2021/12/13 10:03:54;;;;;;;;;;;23.10;49.90;;;;;;5043905;28;19909;-70
2021/12/13 10:06:22;;;;;;;;;;;23.00;50.40;;;;;;5043481;28;19912;-65
2021/12/13 10:08:51;;;;;;;;;;;22.90;50.70;;;;;;5042294;28;19921;-69
2021/12/13 10:11:24;;;;;;;;;;;22.90;51.00;;;;;;5043410;28;19924;-69
2021/12/13 10:13:49;;;;;;;;;;;22.90;50.80;;;;;;5044115;28;19952;-67
2021/12/13 10:16:21;;;;;;;;;;;22.80;49.80;;;;;;5043490;28;20360;-69
2021/12/13 10:18:49;;;;;;;;;;;22.80;49.50;;;;;;5042843;28;19917;-69
2021/12/13 10:21:17;;;;;;;;;;;22.70;49.30;;;;;;5042436;28;19913;-68
2021/12/13 10:23:49;;;;;;;;;;;22.70;49.10;;;;;;5046169;28;19912;-70
2021/12/13 10:26:15;;;;;;;;;;;22.60;49.00;;;;;;5042652;28;19916;-68
2021/12/13 10:28:42;;;;;;;;;;;22.60;49.00;;;;;;5044210;28;19916;-68
2021/12/13 10:31:10;;;;;;;;;;;22.60;49.00;;;;;;5042331;28;19920;-65
2021/12/13 10:33:37;;;;;;;;;;;22.60;49.00;;;;;;5046660;28;19954;-68
2021/12/13 10:36:04;;;;;;;;;;;22.50;49.00;;;;;;5044449;28;19931;-69
2021/12/13 10:38:36;;;;;;;;;;;22.50;49.00;;;;;;5044888;28;19944;-71
2021/12/13 10:41:08;;;;;;;;;;;22.50;49.00;;;;;;5044416;28;19913;-65
2021/12/13 10:43:37;;;;;;;;;;;22.50;49.00;;;;;;5039283;28;19946;-67
2021/12/13 10:46:07;;;;;;;;;;;22.40;48.90;;;;;;5043606;28;20392;-69
2021/12/13 10:48:34;;;;;;;;;;;22.40;49.10;;;;;;5038569;28;22309;-65
2021/12/13 10:51:05;;;;;;;;;;;22.40;49.00;;;;;;5040235;28;19968;-71
2021/12/13 10:53:32;;;;;;;;;;;22.30;48.90;;;;;;5041342;28;19991;-70
2021/12/13 10:56:01;;;;;;;;;;;22.30;49.00;;;;;;5042453;28;20011;-71
2021/12/13 10:58:29;;;;;;;;;;;22.30;49.00;;;;;;5045024;28;19916;-69
2021/12/13 11:01:00;;;;;;;;;;;22.30;49.10;;;;;;5035351;28;20395;-65
2021/12/13 11:03:27;;;;;;;;;;;22.20;49.00;;;;;;5040885;28;19982;-69
2021/12/13 11:05:52;;;;;;;;;;;22.20;49.10;;;;;;5038567;28;20066;-65
2021/12/13 11:08:20;;;;;;;;;;;22.20;49.20;;;;;;5043709;28;20712;-68
2021/12/13 11:10:47;;;;;;;;;;;22.20;49.10;;;;;;5039511;28;20262;-67
2021/12/13 11:13:13;;;;;;;;;;;22.20;49.20;;;;;;5040460;28;19917;-70
2021/12/13 11:15:41;;;;;;;;;;;22.20;49.30;;;;;;5037645;28;19916;-66
2021/12/13 11:18:11;;;;;;;;;;;22.10;49.10;;;;;;5042372;28;20684;-69
2021/12/13 11:20:39;;;;;;;;;;;22.10;49.20;;;;;;5041310;28;19920;-64
2021/12/13 11:23:05;;;;;;;;;;;22.10;49.30;;;;;;5042151;28;19912;-67
2021/12/13 11:25:34;;;;;;;;;;;22.10;49.30;;;;;;5042638;28;19916;-67
2021/12/13 11:28:00;;;;;;;;;;;22.10;49.50;;;;;;5045456;28;19962;-69
2021/12/13 11:30:28;;;;;;;;;;;22.10;49.70;;;;;;5044212;28;20349;-65
2021/12/13 11:32:56;;;;;;;;;;;22.10;49.90;;;;;;5044885;28;19918;-69
2021/12/13 11:35:40;;;;;;;;;;;22.10;50.20;;;;;;5042618;28;19952;-63
2021/12/13 11:38:29;;;;;;;;;;;22.10;50.40;;;;;;5044474;28;20120;-68
2021/12/13 11:41:07;;;;;;;;;;;22.20;50.90;;;;;;5033981;28;19959;-68
2021/12/13 11:43:35;;;;;;;;;;;22.20;51.10;;;;;;5042629;28;19917;-63
2021/12/13 11:46:07;;;;;;;;;;;22.20;51.40;;;;;;5045742;28;20007;-68
2021/12/13 11:48:44;;;;;;;;;;;22.20;51.80;;;;;;5043924;28;19913;-67
2021/12/13 11:51:28;;;;;;;;;;;22.30;52.10;;;;;;5038421;28;19919;-68
2021/12/13 11:54:12;;;;;;;;;;;22.30;52.10;;;;;;5039996;28;20403;-63
2021/12/13 11:56:44;;;;;;;;;;;22.30;52.30;;;;;;5040994;28;19962;-68
2021/12/13 11:59:10;;;;;;;;;;;22.30;52.50;;;;;;5040776;28;20003;-69
2021/12/13 12:01:53;;;;;;;;;;;22.40;52.80;;;;;;5045768;28;20345;-72
2021/12/13 12:04:37;;;;;;;;;;;22.40;52.80;;;;;;5036663;28;19909;-71
2021/12/13 12:07:21;;;;;;;;;;;22.40;52.70;;;;;;5038509;28;21994;-65
2021/12/13 12:10:05;;;;;;;;;;;22.40;52.70;;;;;;5043605;28;19919;-70
2021/12/13 12:12:30;;;;;;;;;;;22.50;53.00;;;;;;5042028;28;19917;-70
2021/12/13 12:15:01;;;;;;;;;;;22.50;52.90;;;;;;5041094;28;19950;-68
2021/12/13 12:17:27;;;;;;;;;;;22.50;52.80;;;;;;5043222;28;19920;-64
2021/12/13 12:19:53;;;;;;;;;;;22.50;53.00;;;;;;5037959;28;20821;-64
2021/12/13 12:22:19;;;;;;;;;;;22.60;53.20;;;;;;5037458;28;19958;-65
2021/12/13 12:24:45;;;;;;;;;;;22.60;52.80;;;;;;5043831;28;19958;-70
2021/12/13 12:27:11;;;;;;;;;;;22.60;52.70;;;;;;5036987;28;20555;-68
2021/12/13 12:29:39;;;;;;;;;;;22.60;53.10;;;;;;5042133;28;20356;-68
2021/12/13 12:32:07;;;;;;;;;;;22.70;53.30;;;;;;5042934;28;19949;-68
2021/12/13 12:34:33;;;;;;;;;;;22.70;53.10;;;;;;5038524;28;19935;-70
2021/12/13 12:36:59;;;;;;;;;;;22.70;52.80;;;;;;5038582;28;19931;-67
2021/12/13 12:39:27;;;;;;;;;;;22.70;52.50;;;;;;5042377;28;20229;-68
2021/12/13 12:42:05;;;;;;;;;;;22.70;52.80;;;;;;5039934;28;19920;-69
2021/12/13 12:44:35;;;;;;;;;;;22.80;53.20;;;;;;5042833;28;19913;-68
2021/12/13 12:47:01;;;;;;;;;;;22.80;53.30;;;;;;5040061;28;19912;-70
2021/12/13 12:49:27;;;;;;;;;;;22.80;53.30;;;;;;5036079;28;19931;-69
2021/12/13 12:52:00;;;;;;;;;;;22.80;53.30;;;;;;5043111;28;19997;-69
2021/12/13 12:54:26;;;;;;;;;;;22.80;53.00;;;;;;5040004;28;19912;-69
2021/12/13 12:56:53;;;;;;;;;;;22.90;53.20;;;;;;5040317;28;19928;-64
2021/12/13 12:59:24;;;;;;;;;;;22.90;53.20;;;;;;5038748;28;19912;-63
2021/12/13 13:01:56;;;;;;;;;;;22.90;53.40;;;;;;5040061;28;19967;-68
2021/12/13 13:04:23;;;;;;;;;;;22.90;53.20;;;;;;5042645;28;19916;-70
2021/12/13 13:06:49;;;;;;;;;;;23.00;53.30;;;;;;5044815;28;19920;-69
2021/12/13 13:09:14;;;;;;;;;;;22.90;50.80;;;;;;5045132;28;20372;-68
2021/12/13 13:11:44;;;;;;;;;;;22.80;43.40;;;;;;5040081;28;20324;-69
2021/12/13 13:14:15;;;;;;;;;;;22.60;39.60;;;;;;5039524;28;19928;-69
2021/12/13 13:16:48;;;;;;;;;;;22.40;38.70;;;;;;5040479;28;19958;-68
2021/12/13 13:19:28;;;;;;;;;;;22.10;38.80;;;;;;5044668;28;19909;-65
2021/12/13 13:21:54;;;;;;;;;;;22.10;40.40;;;;;;5037018;28;20003;-64
2021/12/13 13:24:20;;;;;;;;;;;22.20;41.70;;;;;;5044936;28;19923;-69
2021/12/13 13:26:46;;;;;;;;;;;22.20;42.90;;;;;;5046439;28;19999;-70
2021/12/13 13:29:15;;;;;;;;;;;22.30;43.70;;;;;;5042640;28;19983;-68
2021/12/13 13:31:48;;;;;;;;;;;22.40;44.30;;;;;;5040187;28;20503;-71
2021/12/13 13:34:22;;;;;;;;;;;22.40;44.90;;;;;;5040015;28;20234;-68
2021/12/13 13:36:51;;;;;;;;;;;22.50;45.40;;;;;;5043705;28;20253;-71
2021/12/13 13:39:26;;;;;;;;;;;22.50;45.90;;;;;;5040905;28;20012;-68
2021/12/13 13:41:54;;;;;;;;;;;22.50;45.60;;;;;;5033443;28;19916;-69
2021/12/13 13:44:22;;;;;;;;;;;22.50;43.70;;;;;;5037480;28;20081;-70
2021/12/13 13:46:47;;;;;;;;;;;22.50;43.20;;;;;;5047421;28;19972;-66
2021/12/13 13:49:18;;;;;;;;;;;22.50;43.20;;;;;;5043210;28;20094;-69
2021/12/13 13:51:44;;;;;;;;;;;22.50;43.30;;;;;;5047374;28;19971;-69
2021/12/13 13:54:09;;;;;;;;;;;22.50;43.50;;;;;;5037792;28;19916;-70
2021/12/13 13:56:37;;;;;;;;;;;22.50;43.70;;;;;;5053440;28;19917;-68
2021/12/13 13:59:03;;;;;;;;;;;22.50;43.80;;;;;;5053211;28;19924;-70
2021/12/13 14:01:32;;;;;;;;;;;22.50;44.00;;;;;;5055039;28;19986;-68
2021/12/13 14:03:59;;;;;;;;;;;22.50;44.10;;;;;;5058579;28;19950;-68
2021/12/13 14:06:34;;;;;;;;;;;22.50;44.30;;;;;;5056998;28;19984;-69
2021/12/13 14:09:11;;;;;;;;;;;22.50;44.40;;;;;;5052663;28;20306;-69
2021/12/13 14:11:45;;;;;;;;;;;22.40;44.60;;;;;;5052778;28;20011;-65
2021/12/13 14:14:11;;;;;;;;;;;22.40;44.70;;;;;;5054155;28;19916;-69
2021/12/13 14:16:42;;;;;;;;;;;22.50;44.90;;;;;;5052233;28;20008;-69
2021/12/13 14:19:11;;;;;;;;;;;22.50;45.00;;;;;;5054009;28;19942;-70
2021/12/13 14:21:42;;;;;;;;;;;22.40;45.10;;;;;;5057295;28;19921;-69
2021/12/13 14:24:09;;;;;;;;;;;22.40;45.20;;;;;;5058951;28;20408;-69
2021/12/13 14:26:35;;;;;;;;;;;22.40;45.20;;;;;;5054497;28;19905;-65
2021/12/13 14:29:02;;;;;;;;;;;22.40;45.30;;;;;;5052789;28;19915;-69
2021/12/13 14:31:28;;;;;;;;;;;22.40;45.50;;;;;;5052930;28;20008;-68
2021/12/13 14:34:02;;;;;;;;;;;22.40;45.50;;;;;;5051396;28;20323;-67
2021/12/13 14:36:27;;;;;;;;;;;22.40;45.60;;;;;;5044398;28;19917;-67
2021/12/13 14:38:53;;;;;;;;;;;22.40;45.80;;;;;;5043276;28;19916;-68
2021/12/13 14:41:20;;;;;;;;;;;22.40;45.80;;;;;;5048178;28;20032;-69